sensor_id;sensor_type;location;lat;lon;timestamp;P1;durP1;ratioP1;P2;durP2;ratioP2
43311;SDS011;30041;48.300;16.352;2022-09-17T00:00:32;0.63;;;0.45;;
43311;SDS011;30041;48.300;16.352;2022-09-17T00:02:58;0.73;;;0.30;;
43311;SDS011;30041;48.300;16.352;2022-09-17T00:05:24;0.40;;;0.40;;
43311;SDS011;30041;48.300;16.352;2022-09-17T00:07:52;0.38;;;0.38;;
43311;SDS011;30041;48.300;16.352;2022-09-17T00:10:18;0.40;;;0.35;;
43311;SDS011;30041;48.300;16.352;2022-09-17T00:12:45;0.43;;;0.40;;
43311;SDS011;30041;48.300;16.352;2022-09-17T00:15:11;1.40;;;0.40;;
43311;SDS011;30041;48.300;16.352;2022-09-17T00:17:37;0.60;;;0.40;;
43311;SDS011;30041;48.300;16.352;2022-09-17T00:20:03;0.28;;;0.28;;
43311;SDS011;30041;48.300;16.352;2022-09-17T00:22:30;1.75;;;0.40;;
43311;SDS011;30041;48.300;16.352;2022-09-17T00:24:55;0.38;;;0.30;;
43311;SDS011;30041;48.300;16.352;2022-09-17T00:27:21;0.60;;;0.40;;
43311;SDS011;30041;48.300;16.352;2022-09-17T00:29:49;0.55;;;0.28;;
43311;SDS011;30041;48.300;16.352;2022-09-17T00:32:14;0.63;;;0.40;;
43311;SDS011;30041;48.300;16.352;2022-09-17T00:34:41;0.32;;;0.30;;
43311;SDS011;30041;48.300;16.352;2022-09-17T00:37:06;0.30;;;0.30;;
43311;SDS011;30041;48.300;16.352;2022-09-17T00:39:32;0.43;;;0.30;;
43311;SDS011;30041;48.300;16.352;2022-09-17T00:41:57;0.63;;;0.30;;
43311;SDS011;30041;48.300;16.352;2022-09-17T00:44:43;0.80;;;0.50;;
43311;SDS011;30041;48.300;16.352;2022-09-17T00:47:22;0.40;;;0.30;;
43311;SDS011;30041;48.300;16.352;2022-09-17T00:50:04;0.20;;;0.20;;
43311;SDS011;30041;48.300;16.352;2022-09-17T00:52:38;0.50;;;0.35;;
43311;SDS011;30041;48.300;16.352;2022-09-17T00:55:12;0.65;;;0.30;;
43311;SDS011;30041;48.300;16.352;2022-09-17T00:57:41;0.22;;;0.20;;
43311;SDS011;30041;48.300;16.352;2022-09-17T01:00:08;0.30;;;0.20;;
43311;SDS011;30041;48.300;16.352;2022-09-17T01:02:34;0.35;;;0.30;;
43311;SDS011;30041;48.300;16.352;2022-09-17T01:05:00;0.40;;;0.35;;
43311;SDS011;30041;48.300;16.352;2022-09-17T01:33:25;0.32;;;0.22;;
43311;SDS011;30041;48.300;16.352;2022-09-17T01:39:02;0.30;;;0.30;;
43311;SDS011;30041;48.300;16.352;2022-09-17T01:50:02;0.20;;;0.20;;
43311;SDS011;30041;48.300;16.352;2022-09-17T01:52:33;0.10;;;0.10;;
43311;SDS011;30041;48.300;16.352;2022-09-17T01:55:04;0.45;;;0.22;;
43311;SDS011;30041;48.300;16.352;2022-09-17T01:57:35;0.30;;;0.30;;
43311;SDS011;30041;48.300;16.352;2022-09-17T02:00:07;0.30;;;0.20;;
43311;SDS011;30041;48.300;16.352;2022-09-17T02:02:39;0.20;;;0.20;;
43311;SDS011;30041;48.300;16.352;2022-09-17T02:05:29;0.20;;;0.20;;
43311;SDS011;30041;48.300;16.352;2022-09-17T02:08:04;0.20;;;0.20;;
43311;SDS011;30041;48.300;16.352;2022-09-17T02:10:36;0.30;;;0.20;;
43311;SDS011;30041;48.300;16.352;2022-09-17T02:13:22;0.45;;;0.20;;
43311;SDS011;30041;48.300;16.352;2022-09-17T02:15:51;0.20;;;0.20;;
43311;SDS011;30041;48.300;16.352;2022-09-17T02:18:23;0.57;;;0.30;;
43311;SDS011;30041;48.300;16.352;2022-09-17T02:21:16;0.35;;;0.25;;
43311;SDS011;30041;48.300;16.352;2022-09-17T02:23:53;0.10;;;0.10;;
43311;SDS011;30041;48.300;16.352;2022-09-17T02:26:30;0.20;;;0.20;;
43311;SDS011;30041;48.300;16.352;2022-09-17T02:29:00;0.20;;;0.20;;
43311;SDS011;30041;48.300;16.352;2022-09-17T02:31:32;0.10;;;0.10;;
43311;SDS011;30041;48.300;16.352;2022-09-17T02:33:59;0.10;;;0.10;;
43311;SDS011;30041;48.300;16.352;2022-09-17T02:36:27;0.20;;;0.10;;
43311;SDS011;30041;48.300;16.352;2022-09-17T02:38:56;0.28;;;0.17;;
43311;SDS011;30041;48.300;16.352;2022-09-17T02:41:24;0.10;;;0.10;;
43311;SDS011;30041;48.300;16.352;2022-09-17T02:46:46;0.20;;;0.20;;
43311;SDS011;30041;48.300;16.352;2022-09-17T02:49:23;0.25;;;0.20;;
43311;SDS011;30041;48.300;16.352;2022-09-17T02:52:16;0.55;;;0.25;;
43311;SDS011;30041;48.300;16.352;2022-09-17T02:58:15;0.40;;;0.10;;
43311;SDS011;30041;48.300;16.352;2022-09-17T03:01:04;0.10;;;0.10;;
43311;SDS011;30041;48.300;16.352;2022-09-17T03:03:38;0.20;;;0.15;;
43311;SDS011;30041;48.300;16.352;2022-09-17T03:06:07;0.43;;;0.20;;
43311;SDS011;30041;48.300;16.352;2022-09-17T03:08:34;0.20;;;0.20;;
43311;SDS011;30041;48.300;16.352;2022-09-17T03:11:01;0.20;;;0.10;;
43311;SDS011;30041;48.300;16.352;2022-09-17T03:13:26;0.10;;;0.10;;
43311;SDS011;30041;48.300;16.352;2022-09-17T03:15:51;0.10;;;0.10;;
43311;SDS011;30041;48.300;16.352;2022-09-17T03:18:17;0.50;;;0.30;;
43311;SDS011;30041;48.300;16.352;2022-09-17T03:20:42;0.10;;;0.10;;
43311;SDS011;30041;48.300;16.352;2022-09-17T03:23:08;0.22;;;0.20;;
43311;SDS011;30041;48.300;16.352;2022-09-17T03:25:33;0.17;;;0.10;;
43311;SDS011;30041;48.300;16.352;2022-09-17T03:27:59;0.20;;;0.10;;
43311;SDS011;30041;48.300;16.352;2022-09-17T03:30:24;0.30;;;0.25;;
43311;SDS011;30041;48.300;16.352;2022-09-17T03:32:49;0.17;;;0.17;;
43311;SDS011;30041;48.300;16.352;2022-09-17T03:35:15;0.15;;;0.15;;
43311;SDS011;30041;48.300;16.352;2022-09-17T03:37:40;0.20;;;0.10;;
43311;SDS011;30041;48.300;16.352;2022-09-17T03:40:06;0.10;;;0.10;;
43311;SDS011;30041;48.300;16.352;2022-09-17T03:42:32;0.63;;;0.10;;
43311;SDS011;30041;48.300;16.352;2022-09-17T03:44:57;0.10;;;0.10;;
43311;SDS011;30041;48.300;16.352;2022-09-17T03:47:23;0.10;;;0.10;;
43311;SDS011;30041;48.300;16.352;2022-09-17T03:49:48;0.20;;;0.10;;
43311;SDS011;30041;48.300;16.352;2022-09-17T03:52:13;0.20;;;0.10;;
43311;SDS011;30041;48.300;16.352;2022-09-17T03:54:39;0.55;;;0.20;;
43311;SDS011;30041;48.300;16.352;2022-09-17T03:57:05;0.10;;;0.10;;
43311;SDS011;30041;48.300;16.352;2022-09-17T03:59:30;0.10;;;0.10;;
43311;SDS011;30041;48.300;16.352;2022-09-17T04:01:55;0.13;;;0.10;;
43311;SDS011;30041;48.300;16.352;2022-09-17T04:04:21;0.32;;;0.15;;
43311;SDS011;30041;48.300;16.352;2022-09-17T04:06:46;0.10;;;0.10;;
43311;SDS011;30041;48.300;16.352;2022-09-17T04:09:12;0.10;;;0.10;;
43311;SDS011;30041;48.300;16.352;2022-09-17T04:11:37;0.10;;;0.10;;
43311;SDS011;30041;48.300;16.352;2022-09-17T04:14:03;0.10;;;0.10;;
43311;SDS011;30041;48.300;16.352;2022-09-17T04:16:29;0.03;;;0.03;;
43311;SDS011;30041;48.300;16.352;2022-09-17T04:18:54;0.03;;;0.00;;
43311;SDS011;30041;48.300;16.352;2022-09-17T04:21:19;0.20;;;0.08;;
43311;SDS011;30041;48.300;16.352;2022-09-17T04:23:45;0.00;;;0.00;;
43311;SDS011;30041;48.300;16.352;2022-09-17T04:26:10;0.10;;;0.10;;
43311;SDS011;30041;48.300;16.352;2022-09-17T04:28:36;0.10;;;0.10;;
43311;SDS011;30041;48.300;16.352;2022-09-17T04:31:02;0.10;;;0.10;;
43311;SDS011;30041;48.300;16.352;2022-09-17T04:33:27;0.30;;;0.20;;
43311;SDS011;30041;48.300;16.352;2022-09-17T04:35:52;0.60;;;0.20;;
43311;SDS011;30041;48.300;16.352;2022-09-17T04:38:18;0.03;;;0.03;;
43311;SDS011;30041;48.300;16.352;2022-09-17T04:40:43;0.17;;;0.10;;
43311;SDS011;30041;48.300;16.352;2022-09-17T04:43:09;0.10;;;0.10;;
43311;SDS011;30041;48.300;16.352;2022-09-17T04:45:35;0.10;;;0.10;;
43311;SDS011;30041;48.300;16.352;2022-09-17T04:48:00;0.30;;;0.10;;
43311;SDS011;30041;48.300;16.352;2022-09-17T04:50:26;0.10;;;0.03;;
43311;SDS011;30041;48.300;16.352;2022-09-17T04:52:51;0.10;;;0.10;;
43311;SDS011;30041;48.300;16.352;2022-09-17T04:55:17;0.10;;;0.10;;
43311;SDS011;30041;48.300;16.352;2022-09-17T04:57:46;0.10;;;0.10;;
43311;SDS011;30041;48.300;16.352;2022-09-17T05:00:16;0.08;;;0.00;;
43311;SDS011;30041;48.300;16.352;2022-09-17T05:02:43;0.03;;;0.03;;
43311;SDS011;30041;48.300;16.352;2022-09-17T05:05:10;0.00;;;0.00;;
43311;SDS011;30041;48.300;16.352;2022-09-17T05:07:39;0.05;;;0.03;;
43311;SDS011;30041;48.300;16.352;2022-09-17T05:10:05;0.15;;;0.08;;
43311;SDS011;30041;48.300;16.352;2022-09-17T05:12:31;0.00;;;0.00;;
43311;SDS011;30041;48.300;16.352;2022-09-17T05:14:57;0.10;;;0.00;;
43311;SDS011;30041;48.300;16.352;2022-09-17T05:17:22;0.00;;;0.00;;
43311;SDS011;30041;48.300;16.352;2022-09-17T05:19:48;0.25;;;0.00;;
43311;SDS011;30041;48.300;16.352;2022-09-17T05:22:13;0.00;;;0.00;;
43311;SDS011;30041;48.300;16.352;2022-09-17T05:24:39;0.32;;;0.03;;
43311;SDS011;30041;48.300;16.352;2022-09-17T05:27:05;0.10;;;0.00;;
43311;SDS011;30041;48.300;16.352;2022-09-17T05:29:31;0.00;;;0.00;;
43311;SDS011;30041;48.300;16.352;2022-09-17T05:31:56;0.00;;;0.00;;
43311;SDS011;30041;48.300;16.352;2022-09-17T05:34:22;0.00;;;0.00;;
43311;SDS011;30041;48.300;16.352;2022-09-17T05:36:48;0.00;;;0.00;;
43311;SDS011;30041;48.300;16.352;2022-09-17T05:39:13;0.03;;;0.00;;
43311;SDS011;30041;48.300;16.352;2022-09-17T05:41:39;0.00;;;0.00;;
43311;SDS011;30041;48.300;16.352;2022-09-17T05:44:08;0.00;;;0.00;;
43311;SDS011;30041;48.300;16.352;2022-09-17T05:46:33;0.30;;;0.00;;
43311;SDS011;30041;48.300;16.352;2022-09-17T05:48:59;0.10;;;0.10;;
43311;SDS011;30041;48.300;16.352;2022-09-17T05:51:24;0.00;;;0.00;;
43311;SDS011;30041;48.300;16.352;2022-09-17T05:53:50;0.00;;;0.00;;
43311;SDS011;30041;48.300;16.352;2022-09-17T05:56:18;0.00;;;0.00;;
43311;SDS011;30041;48.300;16.352;2022-09-17T05:58:44;0.00;;;0.00;;
43311;SDS011;30041;48.300;16.352;2022-09-17T06:01:09;0.00;;;0.00;;
43311;SDS011;30041;48.300;16.352;2022-09-17T06:03:34;0.00;;;0.00;;
43311;SDS011;30041;48.300;16.352;2022-09-17T06:06:00;0.00;;;0.00;;
43311;SDS011;30041;48.300;16.352;2022-09-17T06:08:26;0.00;;;0.00;;
43311;SDS011;30041;48.300;16.352;2022-09-17T06:10:53;2.58;;;1.10;;
43311;SDS011;30041;48.300;16.352;2022-09-17T06:13:19;3.88;;;1.20;;
43311;SDS011;30041;48.300;16.352;2022-09-17T06:15:49;4.82;;;1.25;;
43311;SDS011;30041;48.300;16.352;2022-09-17T06:18:15;15.20;;;1.80;;
43311;SDS011;30041;48.300;16.352;2022-09-17T06:20:41;8.50;;;1.55;;
43311;SDS011;30041;48.300;16.352;2022-09-17T06:23:06;8.57;;;1.65;;
43311;SDS011;30041;48.300;16.352;2022-09-17T06:25:32;9.15;;;1.77;;
43311;SDS011;30041;48.300;16.352;2022-09-17T06:27:57;5.38;;;1.25;;
43311;SDS011;30041;48.300;16.352;2022-09-17T06:30:25;11.43;;;1.58;;
43311;SDS011;30041;48.300;16.352;2022-09-17T06:32:51;3.67;;;1.52;;
43311;SDS011;30041;48.300;16.352;2022-09-17T06:35:17;5.57;;;1.58;;
43311;SDS011;30041;48.300;16.352;2022-09-17T06:37:42;4.05;;;1.60;;
43311;SDS011;30041;48.300;16.352;2022-09-17T06:40:08;4.95;;;1.70;;
43311;SDS011;30041;48.300;16.352;2022-09-17T06:42:34;7.13;;;1.63;;
43311;SDS011;30041;48.300;16.352;2022-09-17T06:44:59;5.55;;;1.45;;
43311;SDS011;30041;48.300;16.352;2022-09-17T06:47:25;4.43;;;1.50;;
43311;SDS011;30041;48.300;16.352;2022-09-17T06:49:51;2.95;;;1.52;;
43311;SDS011;30041;48.300;16.352;2022-09-17T06:52:16;3.55;;;1.40;;
43311;SDS011;30041;48.300;16.352;2022-09-17T06:54:42;8.35;;;1.60;;
43311;SDS011;30041;48.300;16.352;2022-09-17T06:57:07;3.55;;;1.50;;
43311;SDS011;30041;48.300;16.352;2022-09-17T06:59:33;4.40;;;1.40;;
43311;SDS011;30041;48.300;16.352;2022-09-17T07:01:58;5.25;;;1.67;;
43311;SDS011;30041;48.300;16.352;2022-09-17T07:04:24;5.40;;;1.52;;
43311;SDS011;30041;48.300;16.352;2022-09-17T07:06:50;4.85;;;1.60;;
43311;SDS011;30041;48.300;16.352;2022-09-17T07:09:16;5.47;;;1.25;;
43311;SDS011;30041;48.300;16.352;2022-09-17T07:11:41;10.60;;;1.77;;
43311;SDS011;30041;48.300;16.352;2022-09-17T07:14:10;7.07;;;1.70;;
43311;SDS011;30041;48.300;16.352;2022-09-17T07:16:39;8.32;;;1.73;;
43311;SDS011;30041;48.300;16.352;2022-09-17T07:19:04;16.50;;;2.22;;
43311;SDS011;30041;48.300;16.352;2022-09-17T07:21:30;10.38;;;1.75;;
43311;SDS011;30041;48.300;16.352;2022-09-17T07:23:56;10.25;;;1.75;;
43311;SDS011;30041;48.300;16.352;2022-09-17T07:26:28;9.07;;;1.90;;
43311;SDS011;30041;48.300;16.352;2022-09-17T07:28:53;4.63;;;1.30;;
43311;SDS011;30041;48.300;16.352;2022-09-17T07:31:19;4.03;;;1.20;;
43311;SDS011;30041;48.300;16.352;2022-09-17T07:33:44;5.38;;;1.55;;
43311;SDS011;30041;48.300;16.352;2022-09-17T07:36:11;7.43;;;1.50;;
43311;SDS011;30041;48.300;16.352;2022-09-17T07:38:38;3.33;;;1.10;;
43311;SDS011;30041;48.300;16.352;2022-09-17T07:41:09;7.00;;;1.42;;
43311;SDS011;30041;48.300;16.352;2022-09-17T07:43:35;5.22;;;1.60;;
43311;SDS011;30041;48.300;16.352;2022-09-17T07:46:02;6.13;;;1.42;;
43311;SDS011;30041;48.300;16.352;2022-09-17T07:48:29;5.13;;;1.23;;
43311;SDS011;30041;48.300;16.352;2022-09-17T07:50:55;3.35;;;1.40;;
43311;SDS011;30041;48.300;16.352;2022-09-17T07:53:21;6.47;;;1.35;;
43311;SDS011;30041;48.300;16.352;2022-09-17T07:55:53;6.82;;;1.50;;
43311;SDS011;30041;48.300;16.352;2022-09-17T07:58:27;16.45;;;2.08;;
43311;SDS011;30041;48.300;16.352;2022-09-17T08:01:07;6.22;;;1.80;;
43311;SDS011;30041;48.300;16.352;2022-09-17T08:03:37;12.50;;;1.60;;
43311;SDS011;30041;48.300;16.352;2022-09-17T08:06:08;5.60;;;1.50;;
43311;SDS011;30041;48.300;16.352;2022-09-17T08:08:36;18.65;;;1.60;;
43311;SDS011;30041;48.300;16.352;2022-09-17T08:11:04;7.70;;;1.73;;
43311;SDS011;30041;48.300;16.352;2022-09-17T08:13:37;10.70;;;1.60;;
43311;SDS011;30041;48.300;16.352;2022-09-17T08:16:05;10.07;;;1.60;;
43311;SDS011;30041;48.300;16.352;2022-09-17T08:18:32;10.20;;;1.35;;
43311;SDS011;30041;48.300;16.352;2022-09-17T08:20:59;5.60;;;1.20;;
43311;SDS011;30041;48.300;16.352;2022-09-17T08:23:28;6.72;;;1.27;;
43311;SDS011;30041;48.300;16.352;2022-09-17T08:25:56;8.10;;;1.30;;
43311;SDS011;30041;48.300;16.352;2022-09-17T08:28:23;9.27;;;1.60;;
43311;SDS011;30041;48.300;16.352;2022-09-17T08:30:51;14.73;;;1.90;;
43311;SDS011;30041;48.300;16.352;2022-09-17T08:33:17;5.70;;;1.42;;
43311;SDS011;30041;48.300;16.352;2022-09-17T08:35:53;14.75;;;1.75;;
43311;SDS011;30041;48.300;16.352;2022-09-17T08:38:19;16.65;;;1.90;;
43311;SDS011;30041;48.300;16.352;2022-09-17T08:46:14;12.02;;;1.70;;
43311;SDS011;30041;48.300;16.352;2022-09-17T08:48:41;12.70;;;1.80;;
43311;SDS011;30041;48.300;16.352;2022-09-17T08:51:22;5.25;;;1.38;;
43311;SDS011;30041;48.300;16.352;2022-09-17T08:57:05;9.00;;;1.50;;
43311;SDS011;30041;48.300;16.352;2022-09-17T08:59:59;8.70;;;1.50;;
43311;SDS011;30041;48.300;16.352;2022-09-17T09:02:58;5.63;;;1.20;;
43311;SDS011;30041;48.300;16.352;2022-09-17T09:05:45;9.37;;;1.50;;
43311;SDS011;30041;48.300;16.352;2022-09-17T09:10:45;6.60;;;1.08;;
43311;SDS011;30041;48.300;16.352;2022-09-17T09:13:17;5.85;;;1.23;;
43311;SDS011;30041;48.300;16.352;2022-09-17T09:15:46;4.10;;;1.00;;
43311;SDS011;30041;48.300;16.352;2022-09-17T09:18:19;4.85;;;1.00;;
43311;SDS011;30041;48.300;16.352;2022-09-17T09:23:20;6.63;;;1.23;;
43311;SDS011;30041;48.300;16.352;2022-09-17T09:26:13;5.68;;;1.30;;
43311;SDS011;30041;48.300;16.352;2022-09-17T09:34:11;4.22;;;1.30;;
43311;SDS011;30041;48.300;16.352;2022-09-17T09:36:38;5.40;;;1.25;;
43311;SDS011;30041;48.300;16.352;2022-09-17T09:41:52;3.80;;;1.35;;
43311;SDS011;30041;48.300;16.352;2022-09-17T09:44:23;3.95;;;1.05;;
43311;SDS011;30041;48.300;16.352;2022-09-17T09:46:52;2.80;;;1.30;;
43311;SDS011;30041;48.300;16.352;2022-09-17T09:52:47;4.15;;;1.10;;
43311;SDS011;30041;48.300;16.352;2022-09-17T09:55:50;2.80;;;0.90;;
43311;SDS011;30041;48.300;16.352;2022-09-17T10:03:28;2.58;;;1.13;;
43311;SDS011;30041;48.300;16.352;2022-09-17T10:05:57;1.88;;;0.80;;
43311;SDS011;30041;48.300;16.352;2022-09-17T10:08:30;1.83;;;0.80;;
43311;SDS011;30041;48.300;16.352;2022-09-17T10:10:58;1.60;;;0.80;;
43311;SDS011;30041;48.300;16.352;2022-09-17T10:13:26;1.58;;;0.73;;
43311;SDS011;30041;48.300;16.352;2022-09-17T10:15:54;4.20;;;1.10;;
43311;SDS011;30041;48.300;16.352;2022-09-17T10:18:21;4.30;;;0.98;;
43311;SDS011;30041;48.300;16.352;2022-09-17T10:23:21;2.55;;;0.82;;
43311;SDS011;30041;48.300;16.352;2022-09-17T10:25:50;5.70;;;1.30;;
43311;SDS011;30041;48.300;16.352;2022-09-17T10:28:23;5.03;;;1.20;;
43311;SDS011;30041;48.300;16.352;2022-09-17T10:31:09;5.28;;;0.85;;
43311;SDS011;30041;48.300;16.352;2022-09-17T10:33:39;3.70;;;1.00;;
43311;SDS011;30041;48.300;16.352;2022-09-17T10:39:19;6.65;;;1.40;;
43311;SDS011;30041;48.300;16.352;2022-09-17T10:41:55;6.03;;;1.02;;
43311;SDS011;30041;48.300;16.352;2022-09-17T10:44:26;6.35;;;1.23;;
43311;SDS011;30041;48.300;16.352;2022-09-17T10:47:03;4.55;;;0.90;;
43311;SDS011;30041;48.300;16.352;2022-09-17T10:49:36;4.15;;;1.15;;
43311;SDS011;30041;48.300;16.352;2022-09-17T10:52:09;2.45;;;1.05;;
43311;SDS011;30041;48.300;16.352;2022-09-17T10:57:51;7.18;;;1.40;;
43311;SDS011;30041;48.300;16.352;2022-09-17T11:27:27;8.70;;;1.13;;
43311;SDS011;30041;48.300;16.352;2022-09-17T11:30:21;8.75;;;1.38;;
43311;SDS011;30041;48.300;16.352;2022-09-17T11:32:51;4.97;;;1.13;;
43311;SDS011;30041;48.300;16.352;2022-09-17T11:35:27;5.75;;;1.42;;
43311;SDS011;30041;48.300;16.352;2022-09-17T11:38:13;8.10;;;1.30;;
43311;SDS011;30041;48.300;16.352;2022-09-17T11:40:51;8.98;;;1.80;;
43311;SDS011;30041;48.300;16.352;2022-09-17T11:43:26;7.68;;;1.30;;
43311;SDS011;30041;48.300;16.352;2022-09-17T11:45:58;6.83;;;1.53;;
43311;SDS011;30041;48.300;16.352;2022-09-17T11:48:28;4.68;;;1.02;;
43311;SDS011;30041;48.300;16.352;2022-09-17T11:51:03;5.90;;;1.30;;
43311;SDS011;30041;48.300;16.352;2022-09-17T11:53:43;3.17;;;1.00;;
43311;SDS011;30041;48.300;16.352;2022-09-17T11:56:32;7.78;;;1.45;;
43311;SDS011;30041;48.300;16.352;2022-09-17T11:59:12;3.80;;;1.17;;
43311;SDS011;30041;48.300;16.352;2022-09-17T12:12:56;3.70;;;1.00;;
43311;SDS011;30041;48.300;16.352;2022-09-17T12:15:46;3.33;;;0.90;;
43311;SDS011;30041;48.300;16.352;2022-09-17T12:21:03;2.92;;;0.88;;
43311;SDS011;30041;48.300;16.352;2022-09-17T12:23:36;4.55;;;0.90;;
43311;SDS011;30041;48.300;16.352;2022-09-17T12:26:48;5.07;;;1.00;;
43311;SDS011;30041;48.300;16.352;2022-09-17T12:32:04;3.00;;;1.00;;
43311;SDS011;30041;48.300;16.352;2022-09-17T12:34:57;5.40;;;0.90;;
43311;SDS011;30041;48.300;16.352;2022-09-17T12:37:35;4.18;;;1.00;;
43311;SDS011;30041;48.300;16.352;2022-09-17T12:40:10;4.88;;;1.20;;
43311;SDS011;30041;48.300;16.352;2022-09-17T12:45:27;2.83;;;0.80;;
43311;SDS011;30041;48.300;16.352;2022-09-17T12:59:34;3.97;;;1.23;;
43311;SDS011;30041;48.300;16.352;2022-09-17T13:13:19;2.70;;;0.80;;
43311;SDS011;30041;48.300;16.352;2022-09-17T13:15:55;2.45;;;0.80;;
43311;SDS011;30041;48.300;16.352;2022-09-17T13:21:31;2.13;;;0.85;;
43311;SDS011;30041;48.300;16.352;2022-09-17T13:23:57;1.23;;;0.55;;
43311;SDS011;30041;48.300;16.352;2022-09-17T13:26:35;3.35;;;0.85;;
43311;SDS011;30041;48.300;16.352;2022-09-17T13:29:02;4.75;;;0.90;;
43311;SDS011;30041;48.300;16.352;2022-09-17T13:34:00;5.22;;;0.90;;
43311;SDS011;30041;48.300;16.352;2022-09-17T13:36:36;6.70;;;1.10;;
43311;SDS011;30041;48.300;16.352;2022-09-17T13:44:35;7.05;;;0.82;;
43311;SDS011;30041;48.300;16.352;2022-09-17T13:47:12;2.47;;;0.80;;
43311;SDS011;30041;48.300;16.352;2022-09-17T13:49:48;2.38;;;0.90;;
43311;SDS011;30041;48.300;16.352;2022-09-17T13:52:27;4.00;;;1.17;;
43311;SDS011;30041;48.300;16.352;2022-09-17T13:54:57;2.08;;;1.20;;
43311;SDS011;30041;48.300;16.352;2022-09-17T13:57:23;2.60;;;1.50;;
43311;SDS011;30041;48.300;16.352;2022-09-17T13:59:52;4.43;;;1.90;;
43311;SDS011;30041;48.300;16.352;2022-09-17T14:02:27;59.08;;;4.82;;
43311;SDS011;30041;48.300;16.352;2022-09-17T14:04:55;14.90;;;1.60;;
43311;SDS011;30041;48.300;16.352;2022-09-17T14:07:46;8.45;;;1.77;;
43311;SDS011;30041;48.300;16.352;2022-09-17T14:20:50;3.50;;;1.45;;
43311;SDS011;30041;48.300;16.352;2022-09-17T14:23:18;5.68;;;1.33;;
43311;SDS011;30041;48.300;16.352;2022-09-17T14:25:47;4.82;;;1.40;;
43311;SDS011;30041;48.300;16.352;2022-09-17T14:31:12;3.03;;;1.30;;
43311;SDS011;30041;48.300;16.352;2022-09-17T14:33:42;4.28;;;1.60;;
43311;SDS011;30041;48.300;16.352;2022-09-17T14:36:12;3.38;;;1.30;;
43311;SDS011;30041;48.300;16.352;2022-09-17T14:38:44;4.20;;;1.35;;
43311;SDS011;30041;48.300;16.352;2022-09-17T14:41:19;3.05;;;1.10;;
43311;SDS011;30041;48.300;16.352;2022-09-17T14:43:52;13.18;;;1.80;;
43311;SDS011;30041;48.300;16.352;2022-09-17T14:46:23;7.57;;;1.48;;
43311;SDS011;30041;48.300;16.352;2022-09-17T14:48:53;15.18;;;2.03;;
43311;SDS011;30041;48.300;16.352;2022-09-17T14:53:44;8.35;;;1.60;;
43311;SDS011;30041;48.300;16.352;2022-09-17T14:56:23;8.80;;;1.55;;
43311;SDS011;30041;48.300;16.352;2022-09-17T14:58:50;4.90;;;1.30;;
43311;SDS011;30041;48.300;16.352;2022-09-17T15:01:24;7.40;;;1.42;;
43311;SDS011;30041;48.300;16.352;2022-09-17T15:07:07;7.13;;;1.40;;
43311;SDS011;30041;48.300;16.352;2022-09-17T15:09:36;7.57;;;1.75;;
43311;SDS011;30041;48.300;16.352;2022-09-17T15:12:01;7.32;;;1.67;;
43311;SDS011;30041;48.300;16.352;2022-09-17T15:14:29;11.68;;;1.65;;
43311;SDS011;30041;48.300;16.352;2022-09-17T15:16:57;9.25;;;1.92;;
43311;SDS011;30041;48.300;16.352;2022-09-17T15:19:33;5.93;;;1.42;;
43311;SDS011;30041;48.300;16.352;2022-09-17T15:22:15;7.43;;;1.35;;
43311;SDS011;30041;48.300;16.352;2022-09-17T15:24:52;4.43;;;1.23;;
43311;SDS011;30041;48.300;16.352;2022-09-17T15:27:31;4.75;;;1.35;;
43311;SDS011;30041;48.300;16.352;2022-09-17T15:30:02;4.68;;;0.98;;
43311;SDS011;30041;48.300;16.352;2022-09-17T15:32:28;7.25;;;1.20;;
43311;SDS011;30041;48.300;16.352;2022-09-17T15:37:42;6.47;;;1.30;;
43311;SDS011;30041;48.300;16.352;2022-09-17T15:40:21;8.32;;;1.40;;
43311;SDS011;30041;48.300;16.352;2022-09-17T15:42:56;5.47;;;1.35;;
43311;SDS011;30041;48.300;16.352;2022-09-17T15:45:26;7.97;;;1.60;;
43311;SDS011;30041;48.300;16.352;2022-09-17T15:48:02;4.97;;;1.20;;
43311;SDS011;30041;48.300;16.352;2022-09-17T15:50:29;9.05;;;1.58;;
43311;SDS011;30041;48.300;16.352;2022-09-17T15:55:43;10.73;;;1.40;;
43311;SDS011;30041;48.300;16.352;2022-09-17T15:58:20;3.67;;;1.20;;
43311;SDS011;30041;48.300;16.352;2022-09-17T16:06:47;7.20;;;1.88;;
43311;SDS011;30041;48.300;16.352;2022-09-17T16:08:55;5.85;;;1.30;;
43311;SDS011;30041;48.300;16.352;2022-09-17T16:11:22;5.47;;;1.45;;
43311;SDS011;30041;48.300;16.352;2022-09-17T16:13:50;7.47;;;1.20;;
43311;SDS011;30041;48.300;16.352;2022-09-17T16:16:18;7.32;;;1.38;;
43311;SDS011;30041;48.300;16.352;2022-09-17T16:18:46;3.85;;;1.08;;
43311;SDS011;30041;48.300;16.352;2022-09-17T16:21:13;7.25;;;1.00;;
43311;SDS011;30041;48.300;16.352;2022-09-17T16:23:39;5.85;;;1.25;;
43311;SDS011;30041;48.300;16.352;2022-09-17T16:26:05;4.22;;;0.93;;
43311;SDS011;30041;48.300;16.352;2022-09-17T16:28:37;5.47;;;1.17;;
43311;SDS011;30041;48.300;16.352;2022-09-17T16:31:04;6.45;;;1.10;;
43311;SDS011;30041;48.300;16.352;2022-09-17T16:33:33;3.90;;;0.90;;
43311;SDS011;30041;48.300;16.352;2022-09-17T16:35:58;4.00;;;1.20;;
43311;SDS011;30041;48.300;16.352;2022-09-17T16:38:24;4.35;;;0.80;;
43311;SDS011;30041;48.300;16.352;2022-09-17T16:40:50;4.25;;;1.10;;
43311;SDS011;30041;48.300;16.352;2022-09-17T16:43:16;3.83;;;1.13;;
43311;SDS011;30041;48.300;16.352;2022-09-17T16:45:43;5.15;;;1.10;;
43311;SDS011;30041;48.300;16.352;2022-09-17T16:48:21;3.78;;;1.15;;
43311;SDS011;30041;48.300;16.352;2022-09-17T16:50:46;7.40;;;1.20;;
43311;SDS011;30041;48.300;16.352;2022-09-17T16:53:12;4.13;;;0.77;;
43311;SDS011;30041;48.300;16.352;2022-09-17T16:55:37;4.72;;;1.00;;
43311;SDS011;30041;48.300;16.352;2022-09-17T16:58:02;4.28;;;1.00;;
43311;SDS011;30041;48.300;16.352;2022-09-17T17:00:28;3.97;;;0.70;;
43311;SDS011;30041;48.300;16.352;2022-09-17T17:02:54;5.40;;;1.00;;
43311;SDS011;30041;48.300;16.352;2022-09-17T17:05:21;3.47;;;1.10;;
43311;SDS011;30041;48.300;16.352;2022-09-17T17:07:47;3.80;;;0.85;;
43311;SDS011;30041;48.300;16.352;2022-09-17T17:10:13;5.60;;;1.15;;
43311;SDS011;30041;48.300;16.352;2022-09-17T17:12:39;4.40;;;1.00;;
43311;SDS011;30041;48.300;16.352;2022-09-17T17:15:05;1.33;;;0.73;;
43311;SDS011;30041;48.300;16.352;2022-09-17T17:17:30;4.13;;;1.10;;
43311;SDS011;30041;48.300;16.352;2022-09-17T17:19:56;3.80;;;1.10;;
43311;SDS011;30041;48.300;16.352;2022-09-17T17:22:22;5.80;;;1.42;;
43311;SDS011;30041;48.300;16.352;2022-09-17T17:24:48;6.10;;;1.20;;
43311;SDS011;30041;48.300;16.352;2022-09-17T17:27:13;3.75;;;1.00;;
43311;SDS011;30041;48.300;16.352;2022-09-17T17:29:38;3.22;;;1.00;;
43311;SDS011;30041;48.300;16.352;2022-09-17T17:32:07;6.18;;;1.15;;
43311;SDS011;30041;48.300;16.352;2022-09-17T17:34:32;4.88;;;1.00;;
43311;SDS011;30041;48.300;16.352;2022-09-17T17:36:58;6.82;;;1.17;;
43311;SDS011;30041;48.300;16.352;2022-09-17T17:39:24;5.07;;;1.10;;
43311;SDS011;30041;48.300;16.352;2022-09-17T17:41:49;2.83;;;0.98;;
43311;SDS011;30041;48.300;16.352;2022-09-17T17:44:15;2.97;;;1.05;;
43311;SDS011;30041;48.300;16.352;2022-09-17T17:46:40;6.38;;;1.00;;
43311;SDS011;30041;48.300;16.352;2022-09-17T17:49:06;3.85;;;1.30;;
43311;SDS011;30041;48.300;16.352;2022-09-17T17:51:32;3.13;;;1.02;;
43311;SDS011;30041;48.300;16.352;2022-09-17T17:53:58;3.15;;;0.98;;
43311;SDS011;30041;48.300;16.352;2022-09-17T17:56:24;4.55;;;0.95;;
43311;SDS011;30041;48.300;16.352;2022-09-17T17:58:53;7.75;;;0.93;;
43311;SDS011;30041;48.300;16.352;2022-09-17T18:01:21;4.60;;;1.00;;